Time;durP1;ratioP1;P1;durP2;ratioP2;P2;SDS_P1;SDS_P2;PMS_P1;PMS_P2;Temp;Humidity;BMP_temperature;BMP_pressure;BME280_temperature;BME280_humidity;BME280_pressure;Samples;Min_cycle;Max_cycle;Signal;HPM_P1;HPM_P2
2022/11/06 00:00:23;;;;;;;;;8.50;6.00;;;;;13.43;57.18;101057.91;5072299;27;45333;-43
2022/11/06 00:02:48;;;;;;;;;10.50;7.00;;;;;13.43;57.09;101053.50;5071790;28;45206;-42
2022/11/06 00:07:58;;;;;;;;;10.00;9.25;;;;;13.39;57.30;101036.13;5070536;28;45860;-42
2022/11/06 00:10:23;;;;;;;;;12.75;8.75;;;;;13.37;57.24;101032.72;5078148;28;45253;-42
2022/11/06 00:12:49;;;;;;;;;11.25;9.00;;;;;13.37;57.26;101034.47;5078123;27;59336;-47
2022/11/06 00:15:14;;;;;;;;;10.75;8.00;;;;;13.36;57.45;101032.75;5076981;27;45465;-44
2022/11/06 00:17:39;;;;;;;;;9.00;6.25;;;;;13.34;57.09;101032.81;5076721;28;73529;-43
2022/11/06 00:20:05;;;;;;;;;6.75;6.75;;;;;13.34;57.28;101040.69;5075283;27;72929;-44
2022/11/06 00:22:35;;;;;;;;;13.50;9.00;;;;;13.34;57.58;101052.97;5078674;28;45296;-43
2022/11/06 00:25:01;;;;;;;;;9.00;7.50;;;;;13.33;57.71;101044.22;5077369;27;45380;-42
2022/11/06 00:27:26;;;;;;;;;13.75;9.50;;;;;13.33;57.71;101049.47;5094455;27;47208;-43
2022/11/06 00:29:51;;;;;;;;;10.25;8.75;;;;;13.32;57.50;101039.03;5076796;27;48838;-42
2022/11/06 00:32:17;;;;;;;;;10.00;8.00;;;;;13.31;57.62;101043.41;5076659;27;60016;-43
2022/11/06 00:34:42;;;;;;;;;12.25;8.00;;;;;13.32;57.48;101052.19;5078508;28;45573;-42
2022/11/06 00:37:08;;;;;;;;;8.25;8.25;;;;;13.30;57.72;101063.56;5082545;27;47323;-45
2022/11/06 00:39:33;;;;;;;;;10.75;6.25;;;;;13.32;57.45;101044.28;5078554;27;45238;-42
2022/11/06 00:41:58;;;;;;;;;7.00;7.00;;;;;13.32;57.26;101039.03;5076845;27;55103;-45
2022/11/06 00:44:24;;;;;;;;;7.50;7.25;;;;;13.30;57.52;101033.78;5079993;27;45188;-43
2022/11/06 00:46:49;;;;;;;;;6.50;6.00;;;;;13.28;57.53;101033.00;5060027;28;45619;-43
2022/11/06 00:49:15;;;;;;;;;11.25;6.75;;;;;13.25;57.25;101035.72;5077419;27;67320;-43
2022/11/06 00:51:41;;;;;;;;;12.50;8.00;;;;;13.22;57.65;101035.81;5078495;28;45261;-43
2022/11/06 00:54:09;;;;;;;;;9.25;7.50;;;;;13.20;57.73;101032.38;5078801;27;45481;-42
2022/11/06 00:56:35;;;;;;;;;11.75;7.50;;;;;13.19;57.52;101025.38;5076703;28;45347;-42
2022/11/06 00:59:03;;;;;;;;;8.00;6.75;;;;;13.19;57.52;101030.66;5063859;27;45375;-42
2022/11/06 01:01:33;;;;;;;;;8.00;7.00;;;;;13.18;57.56;101019.28;5059480;28;45331;-41
2022/11/06 01:04:01;;;;;;;;;8.25;8.00;;;;;13.17;57.73;101006.19;5077422;27;45402;-43
2022/11/06 01:06:28;;;;;;;;;8.50;5.25;;;;;13.15;57.78;101006.25;5082707;28;45328;-41
2022/11/06 01:08:55;;;;;;;;;9.25;7.00;;;;;13.15;57.71;101010.66;5082881;27;45794;-42
2022/11/06 01:11:34;;;;;;;;;9.75;8.00;;;;;13.12;57.48;101003.72;5082719;28;45383;-42
2022/11/06 01:14:01;;;;;;;;;3.00;0.00;;;;;13.15;57.95;101011.50;5082435;27;45343;-44
2022/11/06 01:16:28;;;;;;;;;8.25;5.75;;;;;13.15;57.89;100997.50;5075694;28;45521;-44
2022/11/06 01:18:55;;;;;;;;;7.50;6.75;;;;;13.14;57.79;100996.66;5080034;27;45298;-41
2022/11/06 01:21:31;;;;;;;;;8.50;4.25;;;;;13.14;57.45;100977.38;5081343;28;45276;-42
2022/11/06 01:24:02;;;;;;;;;9.25;7.00;;;;;13.14;57.83;100978.25;5082085;27;45422;-40
2022/11/06 01:26:29;;;;;;;;;9.00;8.50;;;;;13.14;57.54;100988.78;5097984;27;47532;-42
2022/11/06 01:28:55;;;;;;;;;11.00;6.00;;;;;13.18;57.46;101000.03;5080764;28;45794;-44
2022/11/06 01:31:23;;;;;;;;;7.75;5.75;;;;;13.17;57.75;100996.53;5079094;27;45955;-43
2022/11/06 01:33:49;;;;;;;;;7.25;7.00;;;;;13.18;57.85;100997.41;5081974;27;45533;-43
2022/11/06 01:36:16;;;;;;;;;7.25;5.00;;;;;13.20;57.56;100998.22;5080767;27;47175;-44
2022/11/06 01:38:43;;;;;;;;;6.25;6.00;;;;;13.19;57.64;100994.72;5080432;27;45815;-45
2022/11/06 01:41:12;;;;;;;;;6.50;5.00;;;;;13.20;57.23;100995.59;5081947;27;45216;-43
2022/11/06 01:43:53;;;;;;;;;8.25;6.50;;;;;13.17;57.89;101001.78;5080515;27;45614;-42
2022/11/06 01:46:20;;;;;;;;;6.75;5.50;;;;;13.16;57.70;100992.19;5079699;27;45468;-42
2022/11/06 01:48:53;;;;;;;;;5.25;5.25;;;;;13.17;57.76;100995.69;5074565;27;45330;-44
2022/11/06 01:51:21;;;;;;;;;6.00;4.25;;;;;13.18;57.50;100984.28;5112733;27;45454;-44
2022/11/06 01:53:46;;;;;;;;;9.25;5.75;;;;;13.19;57.80;100975.47;5081053;27;45682;-44
2022/11/06 01:56:13;;;;;;;;;6.50;5.50;;;;;13.22;57.43;100978.00;5081965;27;45453;-43
2022/11/06 01:58:40;;;;;;;;;6.00;4.25;;;;;13.23;57.29;100980.56;5072342;27;45848;-42
2022/11/06 02:01:06;;;;;;;;;5.50;5.50;;;;;13.24;57.27;100979.66;5079973;27;45303;-46
2022/11/06 02:03:32;;;;;;;;;9.25;5.00;;;;;13.26;57.70;100969.09;5081060;27;45257;-42
2022/11/06 02:05:58;;;;;;;;;4.00;4.00;;;;;13.28;57.44;100960.25;5078415;27;45491;-44
2022/11/06 02:08:24;;;;;;;;;7.50;5.00;;;;;13.32;57.08;100957.56;5062666;28;73133;-44
2022/11/06 02:10:50;;;;;;;;;5.75;4.25;;;;;13.32;57.12;100958.41;5081449;27;45408;-47
2022/11/06 02:13:23;;;;;;;;;6.25;5.50;;;;;13.30;57.51;100944.44;5063308;28;45415;-47
2022/11/06 02:16:21;;;;;;;;;4.25;4.25;;;;;13.30;57.63;100940.03;5077988;27;46079;-44
2022/11/06 02:18:58;;;;;;;;;8.75;4.50;;;;;13.30;57.06;100933.91;5064641;28;45945;-42
2022/11/06 02:21:47;;;;;;;;;6.00;6.00;;;;;13.28;57.52;100926.09;5081875;27;45279;-45
2022/11/06 02:24:27;;;;;;;;;5.25;4.00;;;;;13.28;57.73;100915.56;5080963;28;45423;-43
2022/11/06 02:27:06;;;;;;;;;5.75;4.50;;;;;13.27;57.10;100905.09;5081323;27;46250;-42
2022/11/06 02:29:37;;;;;;;;;7.25;5.00;;;;;13.28;57.77;100891.06;5080592;27;45307;-43
2022/11/06 02:32:10;;;;;;;;;7.25;6.00;;;;;13.28;57.57;100885.81;5062683;28;45362;-42
2022/11/06 02:34:37;;;;;;;;;6.25;4.50;;;;;13.28;57.19;100893.69;5079630;28;45369;-45
2022/11/06 02:37:17;;;;;;;;;6.75;4.00;;;;;13.30;57.25;100899.75;5077860;28;46467;-42
2022/11/06 02:39:43;;;;;;;;;8.25;4.75;;;;;13.30;57.23;100908.47;5074663;27;45481;-43
2022/11/06 02:42:10;;;;;;;;;4.00;3.25;;;;;13.27;57.19;100895.44;5079739;27;45279;-42
2022/11/06 02:44:37;;;;;;;;;8.75;4.50;;;;;13.30;57.15;100905.84;5080144;28;45327;-42
2022/11/06 02:47:07;;;;;;;;;6.00;4.50;;;;;13.32;57.54;100897.09;5081147;28;46890;-43
2022/11/06 02:49:47;;;;;;;;;7.25;4.00;;;;;13.34;57.28;100900.53;5077993;28;45808;-43
2022/11/06 02:52:18;;;;;;;;;5.75;5.25;;;;;13.32;57.52;100915.50;5081048;27;45305;-45
2022/11/06 02:54:51;;;;;;;;;6.00;4.00;;;;;13.32;57.36;100891.84;5075260;28;45260;-44
2022/11/06 02:57:19;;;;;;;;;5.00;4.25;;;;;13.37;57.18;100893.38;5078324;27;45957;-42
2022/11/06 02:59:50;;;;;;;;;7.25;5.00;;;;;13.38;57.22;100892.47;5071010;28;67153;-41
2022/11/06 03:02:30;;;;;;;;;7.00;5.00;;;;;13.38;56.88;100902.97;5079572;27;45488;-43
2022/11/06 03:05:07;;;;;;;;;4.25;4.25;;;;;13.35;56.82;100892.59;5076724;28;45467;-45
2022/11/06 03:07:40;;;;;;;;;8.75;5.75;;;;;13.32;57.10;100891.84;5079717;27;45397;-47
2022/11/06 03:10:06;;;;;;;;;5.50;4.00;;;;;13.27;57.07;100884.06;5079626;28;45871;-47
2022/11/06 03:12:55;;;;;;;;;7.00;5.00;;;;;13.25;57.41;100872.75;5080811;27;45628;-43
2022/11/06 03:15:32;;;;;;;;;4.00;4.00;;;;;13.22;57.21;100872.88;5076435;27;45181;-44
2022/11/06 03:18:15;;;;;;;;;4.50;3.50;;;;;13.22;57.06;100863.19;5072429;28;46472;-43
2022/11/06 03:20:42;;;;;;;;;3.00;3.00;;;;;13.24;57.44;100853.53;5079231;28;45291;-45
2022/11/06 03:23:25;;;;;;;;;5.50;4.25;;;;;13.25;57.37;100849.13;5079302;28;45323;-49
2022/11/06 03:25:57;;;;;;;;;4.00;4.00;;;;;13.27;57.26;100836.78;5078717;27;45439;-46
2022/11/06 03:28:31;;;;;;;;;7.75;4.00;;;;;13.27;57.28;100842.88;5077439;28;46332;-42
2022/11/06 03:31:02;;;;;;;;;4.75;4.25;;;;;13.29;57.26;100833.16;5085012;27;45359;-45
2022/11/06 03:33:38;;;;;;;;;7.00;3.75;;;;;13.29;56.88;100837.56;5075901;28;45311;-43
2022/11/06 03:36:21;;;;;;;;;4.25;3.25;;;;;13.30;56.72;100823.53;5079409;28;45343;-46
2022/11/06 03:38:51;;;;;;;;;4.50;3.50;;;;;13.30;56.79;100841.91;5079331;28;46105;-45
2022/11/06 03:41:38;;;;;;;;;8.00;4.00;;;;;13.29;56.74;100837.56;5079220;28;45895;-43
2022/11/06 03:44:04;;;;;;;;;4.00;4.00;;;;;13.28;56.92;100826.22;5071424;27;45442;-46
2022/11/06 03:46:31;;;;;;;;;4.75;4.00;;;;;13.28;56.90;100827.97;5078913;27;45384;-47
2022/11/06 03:49:00;;;;;;;;;4.25;2.25;;;;;13.27;56.97;100832.38;5075253;27;46557;-48
2022/11/06 03:51:32;;;;;;;;;6.75;6.00;;;;;13.27;56.80;100839.41;5078784;27;45768;-48
2022/11/06 03:54:01;;;;;;;;;4.75;4.00;;;;;13.26;56.77;100842.94;5060837;28;45238;-48
2022/11/06 03:56:34;;;;;;;;;4.50;3.50;;;;;13.24;56.83;100845.63;5077365;28;45322;-46
2022/11/06 03:59:03;;;;;;;;;6.50;3.00;;;;;13.21;56.75;100842.22;5068432;27;45215;-46
2022/11/06 04:01:41;;;;;;;;;4.00;4.00;;;;;13.19;56.73;100816.03;5078694;28;45380;-43
2022/11/06 04:04:31;;;;;;;;;3.25;3.00;;;;;13.17;56.86;100807.31;5075280;28;45496;-45
2022/11/06 04:07:00;;;;;;;;;6.00;3.00;;;;;13.14;57.07;100807.47;5080147;27;45275;-42
2022/11/06 04:15:14;;;;;;;;;6.75;4.00;;;;;13.14;57.18;100822.34;5077979;27;45207;-42
2022/11/06 04:17:39;;;;;;;;;4.50;4.00;;;;;13.13;56.62;100811.00;5076472;27;45996;-41
2022/11/06 04:20:08;;;;;;;;;5.00;4.00;;;;;13.11;57.17;100797.06;5074468;27;57110;-48
2022/11/06 04:22:40;;;;;;;;;5.00;3.00;;;;;13.14;56.83;100796.06;5072379;27;45782;-42
2022/11/06 04:28:29;;;;;;;;;6.00;4.50;;;;;13.15;56.90;100801.28;5075526;28;45398;-41
2022/11/06 04:31:12;;;;;;;;;6.50;4.25;;;;;13.14;57.13;100791.69;5070686;28;46199;-42
2022/11/06 04:33:49;;;;;;;;;4.75;3.00;;;;;13.14;56.72;100790.81;5078280;27;45244;-41
2022/11/06 04:36:36;;;;;;;;;5.75;5.25;;;;;13.13;56.52;100794.38;5078578;28;45487;-42
2022/11/06 04:39:16;;;;;;;;;5.00;4.00;;;;;13.09;56.93;100805.00;5072217;27;45385;-42
2022/11/06 04:41:42;;;;;;;;;6.00;3.25;;;;;13.11;56.73;100795.28;5081139;27;46245;-42
2022/11/06 04:44:18;;;;;;;;;7.00;3.00;;;;;13.10;56.70;100792.69;5085915;27;45445;-42
2022/11/06 04:46:52;;;;;;;;;3.00;3.00;;;;;13.11;57.01;100807.56;5079976;28;45330;-42
2022/11/06 04:49:17;;;;;;;;;5.25;3.25;;;;;13.14;56.78;100798.69;5081896;27;45283;-42
2022/11/06 04:51:44;;;;;;;;;2.00;2.00;;;;;13.14;56.85;100790.81;5078872;28;62619;-46
2022/11/06 04:54:11;;;;;;;;;10.00;3.00;;;;;13.15;56.49;100788.13;5083082;27;45843;-42
2022/11/06 04:56:36;;;;;;;;;6.00;3.00;;;;;13.15;56.40;100782.88;5076613;27;55423;-41
2022/11/06 04:59:03;;;;;;;;;4.00;2.75;;;;;13.15;56.67;100774.16;5073641;27;47383;-42
2022/11/06 05:01:29;;;;;;;;;7.50;4.00;;;;;13.12;56.81;100783.03;5082467;28;46356;-42
2022/11/06 05:03:54;;;;;;;;;3.75;3.00;;;;;13.11;56.45;100782.13;5081700;27;45373;-44
2022/11/06 05:06:19;;;;;;;;;4.75;2.75;;;;;13.11;56.83;100783.91;5082649;28;45416;-42
2022/11/06 05:08:45;;;;;;;;;4.00;3.75;;;;;13.12;57.02;100769.88;5082416;27;45356;-42
2022/11/06 05:11:10;;;;;;;;;5.00;3.00;;;;;13.11;56.77;100771.63;5080211;28;72380;-42
2022/11/06 05:13:37;;;;;;;;;5.50;4.00;;;;;13.13;56.69;100765.47;5079226;27;59067;-42
2022/11/06 05:16:02;;;;;;;;;3.00;3.00;;;;;13.13;56.42;100752.34;5077177;28;45319;-44
2022/11/06 05:18:28;;;;;;;;;6.00;4.25;;;;;13.13;56.77;100758.44;5081876;27;45402;-43
2022/11/06 05:22:56;;;;;;;;;4.00;3.25;;;;;13.11;56.33;100755.88;5080096;27;45457;-42
2022/11/06 05:23:39;;;;;;;;;6.25;4.25;;;;;13.10;56.58;100758.53;5083211;27;45327;-44
2022/11/06 05:26:05;;;;;;;;;6.00;4.00;;;;;13.11;56.71;100755.03;5083220;27;45338;-47
2022/11/06 05:28:30;;;;;;;;;3.50;3.00;;;;;13.11;56.44;100744.50;5079580;27;45519;-44
2022/11/06 05:30:55;;;;;;;;;5.25;3.25;;;;;13.11;56.61;100734.84;5078181;27;58621;-45
2022/11/06 05:33:21;;;;;;;;;6.00;4.00;;;;;13.10;56.63;100733.16;5062472;28;45225;-42
2022/11/06 05:35:46;;;;;;;;;3.25;3.25;;;;;13.11;56.61;100726.13;5078419;27;69314;-43
2022/11/06 05:38:11;;;;;;;;;4.00;4.00;;;;;13.08;56.28;100719.22;5078040;27;59491;-42
2022/11/06 05:40:37;;;;;;;;;4.75;4.00;;;;;13.08;56.45;100726.22;5081529;27;64797;-42
2022/11/06 05:43:02;;;;;;;;;4.50;3.75;;;;;13.06;56.69;100726.28;5079742;27;51036;-45
2022/11/06 05:45:27;;;;;;;;;6.00;4.50;;;;;13.05;56.43;100724.59;5078678;27;59632;-42
2022/11/06 05:47:53;;;;;;;;;3.75;3.00;;;;;13.02;56.42;100716.81;5076702;28;45687;-46
2022/11/06 05:50:18;;;;;;;;;6.75;4.50;;;;;13.01;56.64;100712.44;5078178;28;57296;-42
2022/11/06 05:52:43;;;;;;;;;5.75;3.00;;;;;12.99;56.49;100714.28;5078626;27;64129;-43
2022/11/06 05:55:09;;;;;;;;;5.50;4.50;;;;;13.00;56.54;100723.03;5078116;28;55157;-47
2022/11/06 05:57:34;;;;;;;;;4.00;4.00;;;;;12.97;56.38;100734.50;5083820;27;47619;-44
2022/11/06 05:59:59;;;;;;;;;3.50;3.50;;;;;12.94;56.40;100716.22;5072581;27;46908;-44
2022/11/06 06:02:25;;;;;;;;;4.75;3.75;;;;;12.89;56.35;100724.28;5085977;27;48929;-42
2022/11/06 06:04:50;;;;;;;;;7.75;3.75;;;;;12.87;56.61;100720.88;5080077;27;65524;-44
2022/11/06 06:07:16;;;;;;;;;5.25;4.00;;;;;12.86;56.51;100721.78;5081851;27;45505;-41
2022/11/06 06:09:41;;;;;;;;;5.50;4.00;;;;;12.83;56.35;100721.03;5081499;27;47526;-41
2022/11/06 06:12:09;;;;;;;;;4.00;4.00;;;;;12.79;56.43;100716.81;5063405;28;45415;-40
2022/11/06 06:14:34;;;;;;;;;9.25;3.50;;;;;12.76;56.46;100712.50;5079253;27;45501;-41
2022/11/06 06:16:59;;;;;;;;;4.75;4.75;;;;;12.76;56.55;100696.75;5077360;28;53673;-42
2022/11/06 06:19:25;;;;;;;;;7.00;5.00;;;;;12.78;56.60;100692.28;5078038;27;53783;-43
2022/11/06 06:21:50;;;;;;;;;5.25;4.00;;;;;12.80;56.63;100687.00;5079876;27;55583;-44
2022/11/06 06:24:15;;;;;;;;;5.50;3.75;;;;;12.82;56.27;100698.28;5079292;28;50898;-46
2022/11/06 06:26:40;;;;;;;;;5.25;4.00;;;;;12.82;56.38;100699.16;5081698;27;48606;-47
2022/11/06 06:29:06;;;;;;;;;5.00;5.00;;;;;12.80;56.29;100693.13;5080563;27;72477;-43
2022/11/06 06:31:31;;;;;;;;;5.00;4.25;;;;;12.76;56.35;100688.88;5081517;28;45210;-42
2022/11/06 06:33:57;;;;;;;;;5.00;4.00;;;;;12.73;56.66;100686.38;5079034;28;45443;-42
2022/11/06 06:36:22;;;;;;;;;5.25;4.00;;;;;12.72;56.36;100679.41;5079730;27;45400;-41
2022/11/06 06:38:48;;;;;;;;;4.00;4.00;;;;;12.74;56.70;100669.69;5073111;27;46083;-42
2022/11/06 06:41:13;;;;;;;;;4.50;4.25;;;;;12.76;56.56;100664.41;5079729;27;51441;-46
2022/11/06 06:43:38;;;;;;;;;9.50;4.25;;;;;12.76;56.33;100656.53;5080043;27;45505;-48
2022/11/06 06:46:05;;;;;;;;;6.50;5.00;;;;;12.75;56.58;100666.19;5076827;27;70384;-42
2022/11/06 06:48:31;;;;;;;;;6.25;6.25;;;;;12.77;56.53;100659.09;5079581;27;46947;-43
2022/11/06 06:51:00;;;;;;;;;7.00;5.00;;;;;12.77;56.45;100659.09;5078925;27;45503;-42
2022/11/06 06:53:26;;;;;;;;;7.00;5.00;;;;;12.77;56.30;100656.47;5076400;28;45543;-43
2022/11/06 06:55:52;;;;;;;;;7.50;4.75;;;;;12.77;56.69;100640.72;5077816;28;45440;-42
2022/11/06 06:58:17;;;;;;;;;4.50;4.00;;;;;12.76;56.24;100648.63;5074170;28;47018;-43
2022/11/06 07:00:43;;;;;;;;;7.50;5.25;;;;;12.77;56.49;100634.63;5066658;27;45267;-42
2022/11/06 07:03:08;;;;;;;;;6.00;5.00;;;;;12.76;56.51;100628.47;5071238;28;59704;-43
2022/11/06 07:05:35;;;;;;;;;8.50;4.00;;;;;12.75;56.24;100629.41;5079577;27;45319;-44
2022/11/06 07:08:00;;;;;;;;;5.75;5.00;;;;;12.74;56.54;100627.69;5080949;28;45417;-42
2022/11/06 07:10:25;;;;;;;;;7.25;4.00;;;;;12.75;56.56;100628.53;5080031;27;67630;-55
2022/11/06 07:12:51;;;;;;;;;8.75;4.25;;;;;12.76;56.50;100638.97;5072016;28;45392;-44
2022/11/06 07:15:16;;;;;;;;;8.00;4.00;;;;;12.76;56.67;100646.00;5095057;27;45418;-42
2022/11/06 07:17:41;;;;;;;;;5.75;2.00;;;;;12.75;56.76;100646.91;5080419;28;46347;-42
2022/11/06 07:20:08;;;;;;;;;8.75;4.00;;;;;12.74;56.55;100643.44;5077188;27;60063;-42
2022/11/06 07:22:33;;;;;;;;;4.00;4.00;;;;;12.73;56.27;100634.72;5080953;27;45629;-46
2022/11/06 07:24:59;;;;;;;;;5.00;3.50;;;;;12.75;56.37;100632.03;5080863;27;45342;-42
2022/11/06 07:27:24;;;;;;;;;8.00;5.00;;;;;12.79;56.17;100632.78;5061892;28;45751;-45
2022/11/06 07:29:50;;;;;;;;;4.75;4.00;;;;;12.80;56.54;100631.84;5076799;27;45353;-43
2022/11/06 07:32:15;;;;;;;;;6.75;4.00;;;;;12.80;56.56;100637.09;5076824;28;66001;-42
2022/11/06 07:34:40;;;;;;;;;8.25;6.00;;;;;12.80;56.41;100627.47;5079535;28;45323;-44
2022/11/06 07:37:06;;;;;;;;;7.75;5.00;;;;;12.78;56.43;100621.41;5081220;27;60066;-42
2022/11/06 07:39:31;;;;;;;;;4.00;3.00;;;;;12.76;56.64;100614.50;5078265;28;45298;-41
2022/11/06 07:41:57;;;;;;;;;6.25;4.50;;;;;12.74;56.53;100611.94;5081799;27;45508;-42
2022/11/06 07:44:22;;;;;;;;;7.25;4.25;;;;;12.74;56.26;100617.19;5062250;28;45356;-42
2022/11/06 07:46:48;;;;;;;;;4.25;4.25;;;;;12.76;56.15;100609.25;5069531;28;46609;-42
2022/11/06 07:49:14;;;;;;;;;5.50;4.50;;;;;12.71;56.71;100610.28;5079434;28;45304;-42
2022/11/06 07:51:40;;;;;;;;;6.75;4.50;;;;;12.72;56.59;100619.00;5080321;28;45326;-43
2022/11/06 07:54:05;;;;;;;;;6.50;3.00;;;;;12.72;56.14;100619.88;5079301;27;45401;-48
2022/11/06 07:56:31;;;;;;;;;5.25;3.25;;;;;12.73;56.38;100621.59;5078435;28;62718;-42
2022/11/06 07:58:57;;;;;;;;;6.00;4.00;;;;;12.70;56.39;100608.56;5070684;27;45356;-41
2022/11/06 08:01:22;;;;;;;;;6.00;5.00;;;;;12.70;56.31;100612.97;5079753;27;45422;-42
2022/11/06 08:03:47;;;;;;;;;5.00;4.00;;;;;12.71;56.54;100615.53;5078076;27;45900;-44
2022/11/06 08:06:13;;;;;;;;;3.50;3.00;;;;;12.70;56.32;100615.59;5079886;27;45334;-42
2022/11/06 08:08:38;;;;;;;;;6.75;4.75;;;;;12.71;56.47;100612.91;5080153;27;45246;-42
2022/11/06 08:11:05;;;;;;;;;5.50;4.50;;;;;12.73;56.12;100611.09;5079910;27;45909;-43
2022/11/06 08:13:34;;;;;;;;;2.75;2.75;;;;;12.73;56.39;100603.22;5079864;28;45481;-42
2022/11/06 08:16:08;;;;;;;;;6.00;3.50;;;;;12.77;56.03;100610.97;5073776;27;45480;-42
2022/11/06 08:18:34;;;;;;;;;4.25;3.50;;;;;12.75;56.48;100592.66;5076960;28;45888;-42
2022/11/06 08:20:59;;;;;;;;;7.00;5.00;;;;;12.79;56.25;100601.25;5070943;27;45438;-42
2022/11/06 08:23:25;;;;;;;;;5.50;4.25;;;;;12.80;56.36;100598.59;5078797;28;48226;-44
2022/11/06 08:25:58;;;;;;;;;5.25;4.00;;;;;12.81;55.80;100584.53;5079384;28;45364;-43
2022/11/06 08:28:25;;;;;;;;;4.00;4.00;;;;;12.83;56.31;100579.22;5078973;27;45753;-43
2022/11/06 08:30:51;;;;;;;;;3.00;3.00;;;;;12.85;56.07;100582.63;5094371;27;45385;-43
2022/11/06 08:33:16;;;;;;;;;7.25;4.50;;;;;12.87;56.40;100580.78;5079590;27;45320;-45
2022/11/06 08:35:42;;;;;;;;;8.25;4.75;;;;;12.86;56.35;100572.06;5079360;27;46225;-45
2022/11/06 08:38:07;;;;;;;;;6.00;3.75;;;;;12.87;56.80;100575.53;5075747;27;46039;-42
2022/11/06 08:40:34;;;;;;;;;6.25;4.00;;;;;12.88;57.20;100575.47;5079322;27;53517;-43
2022/11/06 08:43:05;;;;;;;;;5.00;3.00;;;;;12.90;56.84;100580.69;5079513;27;45448;-45
2022/11/06 08:45:31;;;;;;;;;7.25;4.00;;;;;12.90;57.22;100585.94;5070543;28;46170;-41
2022/11/06 08:48:01;;;;;;;;;6.25;4.00;;;;;12.90;57.09;100580.69;5074066;28;45632;-49
2022/11/06 08:50:27;;;;;;;;;7.00;6.00;;;;;12.92;58.10;100584.09;5079821;27;45251;-41
2022/11/06 08:52:55;;;;;;;;;9.00;7.00;;;;;12.93;57.94;100582.34;5059217;28;45355;-43
2022/11/06 08:55:21;;;;;;;;;4.00;3.75;;;;;12.93;57.99;100577.94;5069751;28;46086;-44
2022/11/06 08:57:46;;;;;;;;;3.50;3.00;;;;;12.94;57.98;100584.03;5078005;27;45568;-42
2022/11/06 09:00:12;;;;;;;;;5.00;4.50;;;;;12.94;58.23;100586.66;5070571;28;50526;-41
2022/11/06 09:02:37;;;;;;;;;4.50;4.50;;;;;12.94;58.10;100584.03;5077871;28;45782;-43
2022/11/06 09:05:03;;;;;;;;;4.75;3.00;;;;;12.92;58.38;100584.09;5079505;28;45535;-45
2022/11/06 09:07:28;;;;;;;;;5.00;4.00;;;;;12.93;58.39;100583.19;5078895;27;45256;-47
2022/11/06 09:09:53;;;;;;;;;4.75;4.75;;;;;12.94;57.98;100576.16;5078269;27;64096;-46
2022/11/06 09:12:19;;;;;;;;;7.25;5.50;;;;;12.94;58.81;100574.38;5077152;28;59975;-43
2022/11/06 09:14:44;;;;;;;;;5.50;5.25;;;;;12.93;58.90;100566.59;5078574;27;54674;-42
2022/11/06 09:17:09;;;;;;;;;5.00;4.00;;;;;12.93;58.95;100558.72;5074599;27;45454;-48
2022/11/06 09:19:35;;;;;;;;;6.00;4.75;;;;;12.91;58.51;100554.38;5076111;27;62490;-48
2022/11/06 09:22:00;;;;;;;;;5.00;5.00;;;;;12.89;58.80;100556.19;5077310;27;71952;-46
2022/11/06 09:24:25;;;;;;;;;6.75;5.75;;;;;12.90;58.53;100551.78;5078733;27;73971;-48
2022/11/06 09:26:51;;;;;;;;;4.50;4.00;;;;;12.89;58.89;100531.69;5084498;27;45290;-48
2022/11/06 09:29:16;;;;;;;;;6.75;4.75;;;;;12.88;58.84;100522.13;5072235;27;45380;-46
2022/11/06 09:31:42;;;;;;;;;6.50;3.50;;;;;12.87;58.92;100512.50;5080609;27;47569;-42
2022/11/06 09:34:08;;;;;;;;;6.00;5.25;;;;;12.85;59.42;100503.84;5097413;27;46990;-42
2022/11/06 09:36:34;;;;;;;;;7.00;5.50;;;;;12.83;59.84;100500.44;5080045;27;45277;-42
2022/11/06 09:39:00;;;;;;;;;6.75;5.25;;;;;12.79;59.70;100496.22;5079752;28;45409;-43
2022/11/06 09:41:44;;;;;;;;;7.50;5.25;;;;;12.72;59.86;100491.19;5081314;27;45283;-42
2022/11/06 09:44:28;;;;;;;;;7.75;5.75;;;;;12.72;59.98;100503.50;5078388;28;46527;-46
2022/11/06 09:46:54;;;;;;;;;8.00;5.00;;;;;12.68;60.34;100508.00;5082100;27;45232;-47
2022/11/06 09:49:32;;;;;;;;;9.00;6.50;;;;;12.70;60.67;100502.69;5063980;27;48073;-43
2022/11/06 09:52:01;;;;;;;;;6.50;5.00;;;;;12.70;60.45;100494.81;5080981;28;45616;-42
2022/11/06 09:54:30;;;;;;;;;7.00;6.25;;;;;12.70;60.38;100495.66;5077564;27;46313;-45
2022/11/06 09:57:03;;;;;;;;;10.00;6.50;;;;;12.66;60.43;100504.59;5081010;27;45231;-42
2022/11/06 09:59:32;;;;;;;;;8.00;5.25;;;;;12.66;60.13;100501.09;5067742;28;45326;-42
2022/11/06 10:02:00;;;;;;;;;7.50;7.00;;;;;12.63;60.51;100493.34;5079874;27;45502;-42
2022/11/06 10:04:46;;;;;;;;;7.50;5.75;;;;;12.62;60.26;100492.47;5077484;28;47111;-44
2022/11/06 10:07:34;;;;;;;;;10.50;7.75;;;;;12.61;60.64;100489.94;5080723;27;45786;-44
2022/11/06 10:10:01;;;;;;;;;7.00;5.00;;;;;12.60;60.74;100486.44;5076273;28;45553;-44
2022/11/06 10:12:42;;;;;;;;;7.25;5.00;;;;;12.61;60.86;100482.91;5081958;27;45439;-43
2022/11/06 10:15:30;;;;;;;;;8.00;5.75;;;;;12.60;60.79;100488.22;5081587;27;45479;-47
2022/11/06 10:18:08;;;;;;;;;6.00;6.00;;;;;12.62;61.30;100486.38;5079845;27;45274;-43
2022/11/06 10:20:46;;;;;;;;;7.25;5.25;;;;;12.61;61.47;100469.78;5076844;28;45423;-42
2022/11/06 10:23:53;;;;;;;;;8.75;7.50;;;;;12.62;62.18;100475.88;5081122;28;45415;-42
2022/11/06 10:26:21;;;;;;;;;12.25;9.00;;;;;12.60;61.71;100472.47;5061158;27;45584;-42
2022/11/06 10:29:15;;;;;;;;;8.75;6.50;;;;;12.62;61.64;100481.13;5080212;27;45362;-44
2022/11/06 10:32:02;;;;;;;;;8.25;6.50;;;;;12.59;61.97;100476.88;5079042;27;45294;-41
2022/11/06 10:34:35;;;;;;;;;9.50;8.00;;;;;12.56;62.23;100474.34;5081644;28;45348;-43
2022/11/06 10:37:09;;;;;;;;;9.50;6.75;;;;;12.49;62.41;100481.63;5076307;28;45364;-42
2022/11/06 10:39:35;;;;;;;;;12.75;7.00;;;;;12.44;62.27;100485.34;5080167;27;45976;-42
2022/11/06 10:42:21;;;;;;;;;5.75;5.75;;;;;12.39;62.54;100487.28;5083608;27;45529;-42
2022/11/06 10:45:10;;;;;;;;;10.00;8.75;;;;;12.34;62.69;100490.94;5078596;27;45312;-44
2022/11/06 10:47:42;;;;;;;;;8.25;7.50;;;;;12.31;62.68;100482.34;5083053;27;46465;-45
2022/11/06 10:50:13;;;;;;;;;8.25;6.50;;;;;12.28;63.26;100480.66;5079932;27;45268;-44
2022/11/06 10:52:52;;;;;;;;;11.00;8.00;;;;;12.28;63.02;100477.19;5076217;27;45375;-41
2022/11/06 10:55:48;;;;;;;;;9.50;7.50;;;;;12.28;63.05;100467.56;5079269;28;45429;-41
2022/11/06 10:58:26;;;;;;;;;9.00;8.50;;;;;12.28;63.12;100462.31;5090037;27;47230;-44
2022/11/06 11:00:54;;;;;;;;;10.50;7.00;;;;;12.31;62.82;100453.47;5067800;27;45501;-43
2022/11/06 11:03:27;;;;;;;;;11.25;9.00;;;;;12.32;62.96;100450.78;5063536;27;45309;-43
2022/11/06 11:05:54;;;;;;;;;10.25;7.00;;;;;12.34;62.84;100438.47;5077657;28;45259;-45
2022/11/06 11:08:41;;;;;;;;;13.25;10.25;;;;;12.38;63.06;100433.06;5080756;27;47009;-45
2022/11/06 11:11:12;;;;;;;;;6.75;4.00;;;;;12.39;63.24;100434.78;5079309;28;46226;-42
2022/11/06 11:13:38;;;;;;;;;12.00;10.00;;;;;12.40;63.35;100437.38;5081130;27;45363;-42
2022/11/06 11:16:03;;;;;;;;;9.75;9.00;;;;;12.38;62.85;100433.94;5078857;27;45503;-41
2022/11/06 11:18:32;;;;;;;;;11.50;8.00;;;;;12.40;62.82;100433.91;5075711;27;45473;-42
2022/11/06 11:21:06;;;;;;;;;15.50;10.00;;;;;12.42;63.38;100430.28;5078251;28;45364;-42
2022/11/06 11:23:31;;;;;;;;;11.00;9.25;;;;;12.43;62.85;100429.38;5080796;27;45535;-44
2022/11/06 11:26:16;;;;;;;;;11.75;9.50;;;;;12.43;62.88;100420.63;5061502;28;45587;-42
2022/11/06 11:28:41;;;;;;;;;12.00;10.00;;;;;12.40;63.28;100408.50;5077253;27;45621;-43
2022/11/06 11:31:16;;;;;;;;;13.00;9.00;;;;;12.40;63.57;100407.66;5077966;27;55325;-42
2022/11/06 11:33:48;;;;;;;;;10.50;9.00;;;;;12.40;63.06;100399.78;5078502;27;45272;-47
2022/11/06 11:36:14;;;;;;;;;11.50;9.00;;;;;12.38;63.46;100394.59;5080243;27;45518;-43
2022/11/06 11:38:40;;;;;;;;;12.50;8.50;;;;;12.38;63.52;100373.59;5080302;27;61002;-44
2022/11/06 11:41:07;;;;;;;;;12.25;9.00;;;;;12.39;63.40;100380.53;5079219;27;45759;-43
2022/11/06 11:43:32;;;;;;;;;10.25;8.25;;;;;12.38;63.67;100377.97;5078378;28;45510;-41
2022/11/06 11:46:06;;;;;;;;;10.50;8.50;;;;;12.39;63.14;100371.81;5079267;27;69538;-45